sensor_id;sensor_type;location;lat;lon;timestamp;P1;durP1;ratioP1;P2;durP2;ratioP2
48733;SDS011;34530;52.084;5.146;2022-10-16T00:01:22;2.95;;;1.23;;
48733;SDS011;34530;52.084;5.146;2022-10-16T00:03:50;2.70;;;1.20;;
48733;SDS011;34530;52.084;5.146;2022-10-16T00:06:17;2.50;;;1.60;;
48733;SDS011;34530;52.084;5.146;2022-10-16T00:08:44;1.85;;;1.30;;
48733;SDS011;34530;52.084;5.146;2022-10-16T00:11:11;5.70;;;1.88;;
48733;SDS011;34530;52.084;5.146;2022-10-16T00:13:42;3.55;;;1.50;;
48733;SDS011;34530;52.084;5.146;2022-10-16T00:16:09;6.18;;;1.85;;
48733;SDS011;34530;52.084;5.146;2022-10-16T00:18:36;2.72;;;1.20;;
48733;SDS011;34530;52.084;5.146;2022-10-16T00:21:09;3.28;;;1.48;;
48733;SDS011;34530;52.084;5.146;2022-10-16T00:23:37;3.05;;;1.48;;
48733;SDS011;34530;52.084;5.146;2022-10-16T00:26:03;4.03;;;1.40;;
48733;SDS011;34530;52.084;5.146;2022-10-16T00:28:31;3.10;;;1.50;;
48733;SDS011;34530;52.084;5.146;2022-10-16T00:30:57;2.80;;;1.20;;
48733;SDS011;34530;52.084;5.146;2022-10-16T00:33:23;2.10;;;1.50;;
48733;SDS011;34530;52.084;5.146;2022-10-16T00:35:49;5.20;;;1.65;;
48733;SDS011;34530;52.084;5.146;2022-10-16T00:38:15;4.30;;;1.27;;
48733;SDS011;34530;52.084;5.146;2022-10-16T00:40:41;5.75;;;1.63;;
48733;SDS011;34530;52.084;5.146;2022-10-16T00:43:13;1.95;;;1.25;;
48733;SDS011;34530;52.084;5.146;2022-10-16T00:45:57;4.68;;;1.45;;
48733;SDS011;34530;52.084;5.146;2022-10-16T00:48:24;5.60;;;1.70;;
48733;SDS011;34530;52.084;5.146;2022-10-16T00:50:49;2.92;;;1.38;;
48733;SDS011;34530;52.084;5.146;2022-10-16T00:53:16;2.42;;;1.45;;
48733;SDS011;34530;52.084;5.146;2022-10-16T00:55:42;2.35;;;1.30;;
48733;SDS011;34530;52.084;5.146;2022-10-16T00:58:08;4.82;;;1.50;;
48733;SDS011;34530;52.084;5.146;2022-10-16T01:00:34;3.70;;;1.30;;
48733;SDS011;34530;52.084;5.146;2022-10-16T01:03:00;4.80;;;1.80;;
48733;SDS011;34530;52.084;5.146;2022-10-16T01:05:30;4.13;;;1.65;;
48733;SDS011;34530;52.084;5.146;2022-10-16T01:10:41;3.90;;;1.08;;
48733;SDS011;34530;52.084;5.146;2022-10-16T01:13:24;5.53;;;1.58;;
48733;SDS011;34530;52.084;5.146;2022-10-16T01:18:28;2.47;;;1.38;;
48733;SDS011;34530;52.084;5.146;2022-10-16T01:20:54;1.63;;;1.33;;
48733;SDS011;34530;52.084;5.146;2022-10-16T01:23:36;2.22;;;1.45;;
48733;SDS011;34530;52.084;5.146;2022-10-16T01:31:59;2.40;;;1.40;;
48733;SDS011;34530;52.084;5.146;2022-10-16T01:34:34;2.72;;;1.40;;
48733;SDS011;34530;52.084;5.146;2022-10-16T01:37:38;2.75;;;1.70;;
48733;SDS011;34530;52.084;5.146;2022-10-16T01:40:34;4.28;;;1.90;;
48733;SDS011;34530;52.084;5.146;2022-10-16T01:43:04;2.13;;;1.40;;
48733;SDS011;34530;52.084;5.146;2022-10-16T01:45:33;3.58;;;1.40;;
48733;SDS011;34530;52.084;5.146;2022-10-16T01:48:00;2.35;;;1.42;;
48733;SDS011;34530;52.084;5.146;2022-10-16T01:50:29;4.38;;;1.45;;
48733;SDS011;34530;52.084;5.146;2022-10-16T01:53:02;1.80;;;1.30;;
48733;SDS011;34530;52.084;5.146;2022-10-16T01:55:34;3.75;;;1.58;;
48733;SDS011;34530;52.084;5.146;2022-10-16T01:58:04;2.80;;;1.50;;
48733;SDS011;34530;52.084;5.146;2022-10-16T02:00:32;2.35;;;1.70;;
48733;SDS011;34530;52.084;5.146;2022-10-16T02:02:58;3.42;;;1.45;;
48733;SDS011;34530;52.084;5.146;2022-10-16T02:05:29;2.75;;;1.30;;
48733;SDS011;34530;52.084;5.146;2022-10-16T02:07:59;2.78;;;1.92;;
48733;SDS011;34530;52.084;5.146;2022-10-16T02:10:25;2.22;;;1.65;;
48733;SDS011;34530;52.084;5.146;2022-10-16T02:12:59;2.88;;;1.40;;
48733;SDS011;34530;52.084;5.146;2022-10-16T02:15:30;3.17;;;1.58;;
48733;SDS011;34530;52.084;5.146;2022-10-16T02:17:55;2.92;;;1.70;;
48733;SDS011;34530;52.084;5.146;2022-10-16T02:20:22;2.42;;;1.83;;
48733;SDS011;34530;52.084;5.146;2022-10-16T02:22:51;6.40;;;1.70;;
48733;SDS011;34530;52.084;5.146;2022-10-16T02:25:24;2.22;;;1.60;;
48733;SDS011;34530;52.084;5.146;2022-10-16T02:27:54;2.38;;;1.70;;
48733;SDS011;34530;52.084;5.146;2022-10-16T02:30:41;2.67;;;1.92;;
48733;SDS011;34530;52.084;5.146;2022-10-16T02:33:11;1.85;;;1.35;;
48733;SDS011;34530;52.084;5.146;2022-10-16T02:35:40;3.97;;;1.50;;
48733;SDS011;34530;52.084;5.146;2022-10-16T02:38:08;3.42;;;1.90;;
48733;SDS011;34530;52.084;5.146;2022-10-16T02:40:35;2.78;;;1.83;;
48733;SDS011;34530;52.084;5.146;2022-10-16T02:43:02;2.47;;;1.70;;
48733;SDS011;34530;52.084;5.146;2022-10-16T02:45:29;2.42;;;1.58;;
48733;SDS011;34530;52.084;5.146;2022-10-16T02:47:54;3.20;;;1.70;;
48733;SDS011;34530;52.084;5.146;2022-10-16T02:50:20;2.55;;;1.50;;
48733;SDS011;34530;52.084;5.146;2022-10-16T02:52:47;2.35;;;1.90;;
48733;SDS011;34530;52.084;5.146;2022-10-16T02:55:13;3.10;;;1.77;;
48733;SDS011;34530;52.084;5.146;2022-10-16T02:57:38;4.93;;;2.03;;
48733;SDS011;34530;52.084;5.146;2022-10-16T03:00:05;3.10;;;1.60;;
48733;SDS011;34530;52.084;5.146;2022-10-16T03:02:32;5.05;;;1.80;;
48733;SDS011;34530;52.084;5.146;2022-10-16T03:04:58;3.63;;;1.98;;
48733;SDS011;34530;52.084;5.146;2022-10-16T03:07:24;2.88;;;1.58;;
48733;SDS011;34530;52.084;5.146;2022-10-16T03:09:49;2.97;;;1.98;;
48733;SDS011;34530;52.084;5.146;2022-10-16T03:12:15;3.95;;;1.83;;
48733;SDS011;34530;52.084;5.146;2022-10-16T03:14:40;3.33;;;1.65;;
48733;SDS011;34530;52.084;5.146;2022-10-16T03:17:06;2.92;;;1.60;;
48733;SDS011;34530;52.084;5.146;2022-10-16T03:19:32;3.08;;;1.80;;
48733;SDS011;34530;52.084;5.146;2022-10-16T03:21:57;3.95;;;1.73;;
48733;SDS011;34530;52.084;5.146;2022-10-16T03:24:23;4.32;;;1.95;;
48733;SDS011;34530;52.084;5.146;2022-10-16T03:26:48;4.18;;;2.00;;
48733;SDS011;34530;52.084;5.146;2022-10-16T03:29:14;2.38;;;1.65;;
48733;SDS011;34530;52.084;5.146;2022-10-16T03:31:39;3.45;;;1.77;;
48733;SDS011;34530;52.084;5.146;2022-10-16T03:34:05;6.50;;;2.60;;
48733;SDS011;34530;52.084;5.146;2022-10-16T03:36:31;5.78;;;2.20;;
48733;SDS011;34530;52.084;5.146;2022-10-16T03:38:56;3.67;;;2.20;;
48733;SDS011;34530;52.084;5.146;2022-10-16T03:41:22;3.75;;;2.00;;
48733;SDS011;34530;52.084;5.146;2022-10-16T03:43:47;4.90;;;2.38;;
48733;SDS011;34530;52.084;5.146;2022-10-16T03:46:13;4.15;;;2.20;;
48733;SDS011;34530;52.084;5.146;2022-10-16T03:48:38;3.45;;;2.03;;
48733;SDS011;34530;52.084;5.146;2022-10-16T03:51:05;3.75;;;2.20;;
48733;SDS011;34530;52.084;5.146;2022-10-16T03:53:30;4.82;;;2.03;;
48733;SDS011;34530;52.084;5.146;2022-10-16T03:55:56;6.05;;;2.05;;
48733;SDS011;34530;52.084;5.146;2022-10-16T03:58:21;3.03;;;1.73;;
48733;SDS011;34530;52.084;5.146;2022-10-16T04:00:47;3.20;;;2.10;;
48733;SDS011;34530;52.084;5.146;2022-10-16T04:03:13;3.50;;;1.90;;
48733;SDS011;34530;52.084;5.146;2022-10-16T04:05:39;2.55;;;1.75;;
48733;SDS011;34530;52.084;5.146;2022-10-16T04:08:05;3.63;;;2.03;;
48733;SDS011;34530;52.084;5.146;2022-10-16T04:10:30;3.20;;;2.00;;
48733;SDS011;34530;52.084;5.146;2022-10-16T04:12:56;4.05;;;2.00;;
48733;SDS011;34530;52.084;5.146;2022-10-16T04:15:22;3.70;;;1.88;;
48733;SDS011;34530;52.084;5.146;2022-10-16T04:17:48;4.25;;;1.83;;
48733;SDS011;34530;52.084;5.146;2022-10-16T04:20:14;2.60;;;1.70;;
48733;SDS011;34530;52.084;5.146;2022-10-16T04:22:40;2.95;;;1.75;;
48733;SDS011;34530;52.084;5.146;2022-10-16T04:25:05;2.50;;;1.88;;
48733;SDS011;34530;52.084;5.146;2022-10-16T04:27:31;3.60;;;1.80;;
48733;SDS011;34530;52.084;5.146;2022-10-16T04:29:57;5.18;;;1.77;;
48733;SDS011;34530;52.084;5.146;2022-10-16T04:32:23;3.05;;;1.50;;
48733;SDS011;34530;52.084;5.146;2022-10-16T04:34:49;2.13;;;1.48;;
48733;SDS011;34530;52.084;5.146;2022-10-16T04:37:15;1.85;;;1.40;;
48733;SDS011;34530;52.084;5.146;2022-10-16T04:39:40;5.13;;;2.03;;
48733;SDS011;34530;52.084;5.146;2022-10-16T04:42:06;3.78;;;1.80;;
48733;SDS011;34530;52.084;5.146;2022-10-16T04:44:31;4.63;;;1.70;;
48733;SDS011;34530;52.084;5.146;2022-10-16T04:46:57;4.55;;;1.48;;
48733;SDS011;34530;52.084;5.146;2022-10-16T04:49:22;2.80;;;2.03;;
48733;SDS011;34530;52.084;5.146;2022-10-16T04:51:48;3.47;;;1.70;;
48733;SDS011;34530;52.084;5.146;2022-10-16T04:54:14;4.22;;;1.55;;
48733;SDS011;34530;52.084;5.146;2022-10-16T04:56:39;2.40;;;1.70;;
48733;SDS011;34530;52.084;5.146;2022-10-16T04:59:11;1.85;;;1.48;;
48733;SDS011;34530;52.084;5.146;2022-10-16T05:01:38;2.22;;;1.60;;
48733;SDS011;34530;52.084;5.146;2022-10-16T05:04:03;2.15;;;1.65;;
48733;SDS011;34530;52.084;5.146;2022-10-16T05:06:29;3.85;;;1.45;;
48733;SDS011;34530;52.084;5.146;2022-10-16T05:08:55;2.35;;;1.70;;
48733;SDS011;34530;52.084;5.146;2022-10-16T05:11:20;2.15;;;1.40;;
48733;SDS011;34530;52.084;5.146;2022-10-16T05:13:46;2.72;;;1.52;;
48733;SDS011;34530;52.084;5.146;2022-10-16T05:16:11;1.85;;;1.15;;
48733;SDS011;34530;52.084;5.146;2022-10-16T05:18:37;2.30;;;1.35;;
48733;SDS011;34530;52.084;5.146;2022-10-16T05:21:03;2.33;;;1.40;;
48733;SDS011;34530;52.084;5.146;2022-10-16T05:23:28;3.38;;;1.27;;
48733;SDS011;34530;52.084;5.146;2022-10-16T05:25:55;1.77;;;1.50;;
48733;SDS011;34530;52.084;5.146;2022-10-16T05:28:23;3.15;;;1.40;;
48733;SDS011;34530;52.084;5.146;2022-10-16T05:30:52;2.20;;;1.70;;
48733;SDS011;34530;52.084;5.146;2022-10-16T05:33:21;2.55;;;1.42;;
48733;SDS011;34530;52.084;5.146;2022-10-16T05:35:47;1.73;;;1.48;;
48733;SDS011;34530;52.084;5.146;2022-10-16T05:38:14;2.80;;;1.50;;
48733;SDS011;34530;52.084;5.146;2022-10-16T05:40:40;1.90;;;1.50;;
48733;SDS011;34530;52.084;5.146;2022-10-16T05:43:06;2.42;;;1.67;;
48733;SDS011;34530;52.084;5.146;2022-10-16T05:45:32;2.58;;;1.58;;
48733;SDS011;34530;52.084;5.146;2022-10-16T05:47:57;2.92;;;1.70;;
48733;SDS011;34530;52.084;5.146;2022-10-16T05:50:23;1.67;;;1.42;;
48733;SDS011;34530;52.084;5.146;2022-10-16T05:52:48;3.10;;;1.48;;
48733;SDS011;34530;52.084;5.146;2022-10-16T05:55:14;2.17;;;1.50;;
48733;SDS011;34530;52.084;5.146;2022-10-16T05:57:40;1.20;;;1.10;;
48733;SDS011;34530;52.084;5.146;2022-10-16T06:00:06;1.88;;;1.27;;
48733;SDS011;34530;52.084;5.146;2022-10-16T06:02:32;1.58;;;1.25;;
48733;SDS011;34530;52.084;5.146;2022-10-16T06:04:57;2.17;;;1.40;;
48733;SDS011;34530;52.084;5.146;2022-10-16T06:07:23;1.75;;;1.20;;
48733;SDS011;34530;52.084;5.146;2022-10-16T06:09:49;2.33;;;1.67;;
48733;SDS011;34530;52.084;5.146;2022-10-16T06:12:16;1.40;;;1.30;;
48733;SDS011;34530;52.084;5.146;2022-10-16T06:14:42;2.55;;;1.65;;
48733;SDS011;34530;52.084;5.146;2022-10-16T06:17:07;2.78;;;1.52;;
48733;SDS011;34530;52.084;5.146;2022-10-16T06:19:33;2.38;;;1.48;;
48733;SDS011;34530;52.084;5.146;2022-10-16T06:21:58;3.00;;;1.38;;
48733;SDS011;34530;52.084;5.146;2022-10-16T06:24:25;1.90;;;1.30;;
48733;SDS011;34530;52.084;5.146;2022-10-16T06:26:50;1.83;;;1.38;;
48733;SDS011;34530;52.084;5.146;2022-10-16T06:29:16;1.80;;;1.15;;
48733;SDS011;34530;52.084;5.146;2022-10-16T06:31:42;1.70;;;1.17;;
48733;SDS011;34530;52.084;5.146;2022-10-16T06:34:09;1.08;;;0.98;;
48733;SDS011;34530;52.084;5.146;2022-10-16T06:36:36;1.13;;;1.02;;
48733;SDS011;34530;52.084;5.146;2022-10-16T06:39:03;1.38;;;1.00;;
48733;SDS011;34530;52.084;5.146;2022-10-16T06:41:30;2.13;;;1.30;;
48733;SDS011;34530;52.084;5.146;2022-10-16T06:43:56;1.25;;;1.15;;
48733;SDS011;34530;52.084;5.146;2022-10-16T06:46:22;1.77;;;1.38;;
48733;SDS011;34530;52.084;5.146;2022-10-16T06:48:49;2.55;;;1.58;;
48733;SDS011;34530;52.084;5.146;2022-10-16T06:51:15;2.15;;;1.33;;
48733;SDS011;34530;52.084;5.146;2022-10-16T06:53:43;5.05;;;1.77;;
48733;SDS011;34530;52.084;5.146;2022-10-16T06:56:11;2.55;;;1.17;;
48733;SDS011;34530;52.084;5.146;2022-10-16T06:58:42;1.40;;;1.20;;
48733;SDS011;34530;52.084;5.146;2022-10-16T07:01:08;2.47;;;1.13;;
48733;SDS011;34530;52.084;5.146;2022-10-16T07:03:38;2.60;;;1.48;;
48733;SDS011;34530;52.084;5.146;2022-10-16T07:06:05;1.27;;;1.17;;
48733;SDS011;34530;52.084;5.146;2022-10-16T07:08:32;1.63;;;1.23;;
48733;SDS011;34530;52.084;5.146;2022-10-16T07:11:04;3.30;;;1.10;;
48733;SDS011;34530;52.084;5.146;2022-10-16T07:13:34;2.85;;;1.30;;
48733;SDS011;34530;52.084;5.146;2022-10-16T07:16:08;3.83;;;1.30;;
48733;SDS011;34530;52.084;5.146;2022-10-16T07:18:35;4.93;;;1.48;;
48733;SDS011;34530;52.084;5.146;2022-10-16T07:21:18;1.90;;;1.48;;
48733;SDS011;34530;52.084;5.146;2022-10-16T07:23:45;2.45;;;1.35;;
48733;SDS011;34530;52.084;5.146;2022-10-16T07:26:15;2.83;;;1.40;;
48733;SDS011;34530;52.084;5.146;2022-10-16T07:28:42;3.75;;;1.40;;
48733;SDS011;34530;52.084;5.146;2022-10-16T07:31:10;2.33;;;1.80;;
48733;SDS011;34530;52.084;5.146;2022-10-16T07:33:37;2.92;;;1.55;;
48733;SDS011;34530;52.084;5.146;2022-10-16T07:36:04;2.78;;;1.60;;
48733;SDS011;34530;52.084;5.146;2022-10-16T07:38:30;5.50;;;1.60;;
48733;SDS011;34530;52.084;5.146;2022-10-16T07:40:56;3.00;;;1.40;;
48733;SDS011;34530;52.084;5.146;2022-10-16T07:43:23;2.78;;;1.30;;
48733;SDS011;34530;52.084;5.146;2022-10-16T07:45:49;1.33;;;1.15;;
48733;SDS011;34530;52.084;5.146;2022-10-16T07:48:16;3.03;;;1.55;;
48733;SDS011;34530;52.084;5.146;2022-10-16T07:50:42;3.88;;;1.38;;
48733;SDS011;34530;52.084;5.146;2022-10-16T07:53:08;2.25;;;1.02;;
48733;SDS011;34530;52.084;5.146;2022-10-16T07:55:33;2.03;;;1.30;;
48733;SDS011;34530;52.084;5.146;2022-10-16T07:57:59;4.30;;;1.50;;
48733;SDS011;34530;52.084;5.146;2022-10-16T08:00:24;3.17;;;1.38;;
48733;SDS011;34530;52.084;5.146;2022-10-16T08:02:50;5.53;;;1.17;;
48733;SDS011;34530;52.084;5.146;2022-10-16T08:05:15;1.60;;;1.33;;
48733;SDS011;34530;52.084;5.146;2022-10-16T08:07:41;1.23;;;1.13;;
48733;SDS011;34530;52.084;5.146;2022-10-16T08:10:09;3.63;;;1.30;;
48733;SDS011;34530;52.084;5.146;2022-10-16T08:12:41;2.92;;;1.52;;
48733;SDS011;34530;52.084;5.146;2022-10-16T08:15:07;2.45;;;1.30;;
48733;SDS011;34530;52.084;5.146;2022-10-16T08:17:33;5.38;;;1.67;;
48733;SDS011;34530;52.084;5.146;2022-10-16T08:19:58;4.45;;;0.98;;
48733;SDS011;34530;52.084;5.146;2022-10-16T08:22:24;1.67;;;1.00;;
48733;SDS011;34530;52.084;5.146;2022-10-16T08:24:49;2.15;;;1.08;;
48733;SDS011;34530;52.084;5.146;2022-10-16T08:27:15;3.38;;;1.40;;
48733;SDS011;34530;52.084;5.146;2022-10-16T08:29:40;3.13;;;1.35;;
48733;SDS011;34530;52.084;5.146;2022-10-16T08:32:06;3.92;;;1.42;;
48733;SDS011;34530;52.084;5.146;2022-10-16T08:34:32;2.95;;;1.25;;
48733;SDS011;34530;52.084;5.146;2022-10-16T08:36:57;3.90;;;1.92;;
48733;SDS011;34530;52.084;5.146;2022-10-16T08:39:23;3.28;;;1.20;;
48733;SDS011;34530;52.084;5.146;2022-10-16T08:42:04;3.90;;;1.85;;
48733;SDS011;34530;52.084;5.146;2022-10-16T08:50:33;2.95;;;1.52;;
48733;SDS011;34530;52.084;5.146;2022-10-16T08:53:03;4.18;;;1.38;;
48733;SDS011;34530;52.084;5.146;2022-10-16T08:56:04;3.42;;;1.58;;
48733;SDS011;34530;52.084;5.146;2022-10-16T08:58:26;3.40;;;1.40;;
48733;SDS011;34530;52.084;5.146;2022-10-16T09:00:56;4.18;;;1.60;;
48733;SDS011;34530;52.084;5.146;2022-10-16T09:08:50;2.72;;;1.70;;
48733;SDS011;34530;52.084;5.146;2022-10-16T09:12:19;2.70;;;1.38;;
48733;SDS011;34530;52.084;5.146;2022-10-16T09:17:54;2.72;;;1.20;;
48733;SDS011;34530;52.084;5.146;2022-10-16T09:20:32;3.45;;;1.27;;
48733;SDS011;34530;52.084;5.146;2022-10-16T09:23:19;3.25;;;1.15;;
48733;SDS011;34530;52.084;5.146;2022-10-16T09:25:50;7.47;;;1.90;;
48733;SDS011;34530;52.084;5.146;2022-10-16T09:28:17;5.60;;;1.60;;
48733;SDS011;34530;52.084;5.146;2022-10-16T09:30:44;3.50;;;1.48;;
48733;SDS011;34530;52.084;5.146;2022-10-16T09:33:11;2.10;;;1.30;;
48733;SDS011;34530;52.084;5.146;2022-10-16T09:35:39;4.15;;;1.67;;
48733;SDS011;34530;52.084;5.146;2022-10-16T09:38:07;3.17;;;1.65;;
48733;SDS011;34530;52.084;5.146;2022-10-16T09:40:37;3.03;;;1.30;;
48733;SDS011;34530;52.084;5.146;2022-10-16T09:46:25;4.60;;;1.27;;
48733;SDS011;34530;52.084;5.146;2022-10-16T09:49:16;2.55;;;1.30;;
48733;SDS011;34530;52.084;5.146;2022-10-16T09:51:48;4.05;;;1.60;;
48733;SDS011;34530;52.084;5.146;2022-10-16T09:54:15;4.30;;;1.63;;
48733;SDS011;34530;52.084;5.146;2022-10-16T09:56:46;5.60;;;1.35;;
48733;SDS011;34530;52.084;5.146;2022-10-16T09:59:20;6.70;;;2.08;;
48733;SDS011;34530;52.084;5.146;2022-10-16T10:01:55;7.13;;;1.50;;
48733;SDS011;34530;52.084;5.146;2022-10-16T10:04:24;3.35;;;1.48;;
48733;SDS011;34530;52.084;5.146;2022-10-16T10:06:54;4.95;;;1.50;;
48733;SDS011;34530;52.084;5.146;2022-10-16T10:09:22;4.35;;;1.45;;
48733;SDS011;34530;52.084;5.146;2022-10-16T10:11:54;5.72;;;1.70;;
48733;SDS011;34530;52.084;5.146;2022-10-16T10:22:44;7.80;;;2.00;;
48733;SDS011;34530;52.084;5.146;2022-10-16T10:30:53;4.13;;;1.88;;
48733;SDS011;34530;52.084;5.146;2022-10-16T10:33:37;6.10;;;1.75;;
48733;SDS011;34530;52.084;5.146;2022-10-16T10:36:28;5.30;;;1.50;;
48733;SDS011;34530;52.084;5.146;2022-10-16T10:39:22;6.30;;;1.60;;
48733;SDS011;34530;52.084;5.146;2022-10-16T10:42:09;10.68;;;2.10;;
48733;SDS011;34530;52.084;5.146;2022-10-16T10:44:51;8.15;;;2.30;;
48733;SDS011;34530;52.084;5.146;2022-10-16T10:48:00;4.78;;;1.70;;
48733;SDS011;34530;52.084;5.146;2022-10-16T10:55:58;5.85;;;2.28;;
48733;SDS011;34530;52.084;5.146;2022-10-16T11:04:11;6.43;;;1.70;;
48733;SDS011;34530;52.084;5.146;2022-10-16T11:09:27;5.50;;;1.83;;
48733;SDS011;34530;52.084;5.146;2022-10-16T11:14:28;6.80;;;1.80;;
48733;SDS011;34530;52.084;5.146;2022-10-16T11:19:37;8.02;;;2.25;;
48733;SDS011;34530;52.084;5.146;2022-10-16T11:22:24;7.00;;;1.95;;
48733;SDS011;34530;52.084;5.146;2022-10-16T11:30:40;5.68;;;2.05;;
48733;SDS011;34530;52.084;5.146;2022-10-16T11:36:31;5.93;;;1.80;;
48733;SDS011;34530;52.084;5.146;2022-10-16T11:47:28;5.85;;;2.05;;
48733;SDS011;34530;52.084;5.146;2022-10-16T11:55:34;5.32;;;2.13;;
48733;SDS011;34530;52.084;5.146;2022-10-16T12:00:47;8.10;;;2.10;;
48733;SDS011;34530;52.084;5.146;2022-10-16T12:03:39;6.78;;;1.63;;
48733;SDS011;34530;52.084;5.146;2022-10-16T12:06:21;7.53;;;2.10;;
48733;SDS011;34530;52.084;5.146;2022-10-16T12:08:49;7.15;;;2.10;;
48733;SDS011;34530;52.084;5.146;2022-10-16T12:11:24;6.05;;;2.15;;
48733;SDS011;34530;52.084;5.146;2022-10-16T12:16:38;8.27;;;2.25;;
48733;SDS011;34530;52.084;5.146;2022-10-16T12:19:29;16.63;;;2.25;;
48733;SDS011;34530;52.084;5.146;2022-10-16T12:21:57;4.05;;;1.52;;
48733;SDS011;34530;52.084;5.146;2022-10-16T12:24:36;8.27;;;2.50;;
48733;SDS011;34530;52.084;5.146;2022-10-16T12:27:04;5.75;;;1.70;;
48733;SDS011;34530;52.084;5.146;2022-10-16T12:29:32;4.43;;;2.00;;
48733;SDS011;34530;52.084;5.146;2022-10-16T12:35:05;7.30;;;1.90;;
48733;SDS011;34530;52.084;5.146;2022-10-16T12:37:42;6.63;;;1.80;;
48733;SDS011;34530;52.084;5.146;2022-10-16T12:40:43;6.68;;;2.22;;
48733;SDS011;34530;52.084;5.146;2022-10-16T12:43:11;12.07;;;2.75;;
48733;SDS011;34530;52.084;5.146;2022-10-16T12:45:46;7.82;;;2.22;;
48733;SDS011;34530;52.084;5.146;2022-10-16T12:48:21;5.25;;;1.95;;
48733;SDS011;34530;52.084;5.146;2022-10-16T12:50:47;9.10;;;2.28;;
48733;SDS011;34530;52.084;5.146;2022-10-16T12:53:20;7.57;;;2.15;;
48733;SDS011;34530;52.084;5.146;2022-10-16T12:58:43;8.30;;;1.85;;
48733;SDS011;34530;52.084;5.146;2022-10-16T13:01:17;8.32;;;2.78;;
48733;SDS011;34530;52.084;5.146;2022-10-16T13:17:30;5.07;;;1.60;;
48733;SDS011;34530;52.084;5.146;2022-10-16T13:28:22;5.43;;;1.52;;
48733;SDS011;34530;52.084;5.146;2022-10-16T13:30:55;9.82;;;2.13;;
48733;SDS011;34530;52.084;5.146;2022-10-16T13:35:57;5.63;;;1.55;;
48733;SDS011;34530;52.084;5.146;2022-10-16T13:38:26;4.57;;;1.75;;
48733;SDS011;34530;52.084;5.146;2022-10-16T13:43:35;6.95;;;2.00;;
48733;SDS011;34530;52.084;5.146;2022-10-16T13:46:14;5.28;;;1.73;;
48733;SDS011;34530;52.084;5.146;2022-10-16T13:48:41;5.82;;;1.70;;
48733;SDS011;34530;52.084;5.146;2022-10-16T13:51:17;9.20;;;2.47;;
48733;SDS011;34530;52.084;5.146;2022-10-16T13:53:44;7.03;;;1.98;;
48733;SDS011;34530;52.084;5.146;2022-10-16T13:56:11;9.70;;;2.47;;
48733;SDS011;34530;52.084;5.146;2022-10-16T13:58:38;6.28;;;2.20;;
48733;SDS011;34530;52.084;5.146;2022-10-16T14:01:05;9.60;;;2.10;;
48733;SDS011;34530;52.084;5.146;2022-10-16T14:03:43;4.00;;;1.50;;
48733;SDS011;34530;52.084;5.146;2022-10-16T14:06:12;5.53;;;1.80;;
48733;SDS011;34530;52.084;5.146;2022-10-16T14:08:45;7.90;;;2.30;;
48733;SDS011;34530;52.084;5.146;2022-10-16T14:11:22;5.30;;;1.95;;
48733;SDS011;34530;52.084;5.146;2022-10-16T14:13:49;7.03;;;1.63;;
48733;SDS011;34530;52.084;5.146;2022-10-16T14:16:29;9.38;;;1.90;;
48733;SDS011;34530;52.084;5.146;2022-10-16T14:19:00;9.95;;;2.35;;
48733;SDS011;34530;52.084;5.146;2022-10-16T14:21:30;7.72;;;1.92;;
48733;SDS011;34530;52.084;5.146;2022-10-16T14:23:57;8.75;;;2.13;;
48733;SDS011;34530;52.084;5.146;2022-10-16T14:26:24;8.35;;;2.10;;
48733;SDS011;34530;52.084;5.146;2022-10-16T14:31:36;8.90;;;2.20;;
48733;SDS011;34530;52.084;5.146;2022-10-16T14:34:04;3.47;;;1.60;;
48733;SDS011;34530;52.084;5.146;2022-10-16T14:36:47;7.47;;;1.98;;
48733;SDS011;34530;52.084;5.146;2022-10-16T14:39:17;7.22;;;1.85;;
48733;SDS011;34530;52.084;5.146;2022-10-16T14:41:46;6.65;;;2.17;;
48733;SDS011;34530;52.084;5.146;2022-10-16T14:44:13;5.53;;;1.50;;
48733;SDS011;34530;52.084;5.146;2022-10-16T14:46:40;4.72;;;1.80;;
48733;SDS011;34530;52.084;5.146;2022-10-16T14:51:39;7.25;;;1.90;;
48733;SDS011;34530;52.084;5.146;2022-10-16T14:54:07;5.57;;;1.95;;
48733;SDS011;34530;52.084;5.146;2022-10-16T14:56:34;6.05;;;1.77;;
48733;SDS011;34530;52.084;5.146;2022-10-16T14:59:38;7.00;;;1.95;;
48733;SDS011;34530;52.084;5.146;2022-10-16T15:02:23;4.88;;;1.80;;
48733;SDS011;34530;52.084;5.146;2022-10-16T15:04:58;5.53;;;1.52;;
48733;SDS011;34530;52.084;5.146;2022-10-16T15:07:38;7.05;;;1.90;;
48733;SDS011;34530;52.084;5.146;2022-10-16T15:10:04;6.60;;;1.80;;
48733;SDS011;34530;52.084;5.146;2022-10-16T15:12:30;6.28;;;1.80;;
48733;SDS011;34530;52.084;5.146;2022-10-16T15:14:55;6.18;;;1.95;;
48733;SDS011;34530;52.084;5.146;2022-10-16T15:17:21;6.20;;;1.85;;
48733;SDS011;34530;52.084;5.146;2022-10-16T15:19:46;7.68;;;1.83;;
48733;SDS011;34530;52.084;5.146;2022-10-16T15:22:12;5.57;;;1.70;;
48733;SDS011;34530;52.084;5.146;2022-10-16T15:24:38;3.92;;;1.55;;
48733;SDS011;34530;52.084;5.146;2022-10-16T15:27:03;3.95;;;1.75;;
48733;SDS011;34530;52.084;5.146;2022-10-16T15:29:29;5.38;;;1.90;;
48733;SDS011;34530;52.084;5.146;2022-10-16T15:31:55;9.48;;;2.05;;
48733;SDS011;34530;52.084;5.146;2022-10-16T15:34:20;6.93;;;1.60;;
48733;SDS011;34530;52.084;5.146;2022-10-16T15:36:46;8.50;;;1.77;;
48733;SDS011;34530;52.084;5.146;2022-10-16T15:39:12;5.88;;;1.90;;
48733;SDS011;34530;52.084;5.146;2022-10-16T15:41:40;5.53;;;1.42;;
48733;SDS011;34530;52.084;5.146;2022-10-16T15:44:06;5.35;;;1.67;;
48733;SDS011;34530;52.084;5.146;2022-10-16T15:46:32;6.20;;;1.77;;
48733;SDS011;34530;52.084;5.146;2022-10-16T15:48:59;3.60;;;1.70;;
48733;SDS011;34530;52.084;5.146;2022-10-16T15:51:26;4.38;;;1.67;;
48733;SDS011;34530;52.084;5.146;2022-10-16T15:53:57;4.88;;;1.63;;
48733;SDS011;34530;52.084;5.146;2022-10-16T15:56:24;5.68;;;1.90;;
48733;SDS011;34530;52.084;5.146;2022-10-16T15:58:51;7.88;;;1.83;;
48733;SDS011;34530;52.084;5.146;2022-10-16T16:01:17;9.32;;;2.00;;
48733;SDS011;34530;52.084;5.146;2022-10-16T16:03:42;5.05;;;1.60;;
48733;SDS011;34530;52.084;5.146;2022-10-16T16:06:09;6.18;;;1.73;;
48733;SDS011;34530;52.084;5.146;2022-10-16T16:08:36;4.75;;;1.75;;
48733;SDS011;34530;52.084;5.146;2022-10-16T16:11:04;3.60;;;1.80;;
48733;SDS011;34530;52.084;5.146;2022-10-16T16:13:31;4.75;;;1.88;;
48733;SDS011;34530;52.084;5.146;2022-10-16T16:15:57;4.78;;;1.33;;
48733;SDS011;34530;52.084;5.146;2022-10-16T16:18:23;4.32;;;1.55;;
48733;SDS011;34530;52.084;5.146;2022-10-16T16:20:49;2.65;;;1.42;;
48733;SDS011;34530;52.084;5.146;2022-10-16T16:23:15;3.53;;;1.67;;
48733;SDS011;34530;52.084;5.146;2022-10-16T16:25:41;6.30;;;1.75;;
48733;SDS011;34530;52.084;5.146;2022-10-16T16:28:07;4.60;;;1.80;;
48733;SDS011;34530;52.084;5.146;2022-10-16T16:30:35;5.85;;;1.63;;
48733;SDS011;34530;52.084;5.146;2022-10-16T16:33:01;7.55;;;1.52;;
48733;SDS011;34530;52.084;5.146;2022-10-16T16:35:27;7.93;;;1.90;;
48733;SDS011;34530;52.084;5.146;2022-10-16T16:37:52;4.47;;;1.50;;
48733;SDS011;34530;52.084;5.146;2022-10-16T16:40:18;4.25;;;1.35;;
48733;SDS011;34530;52.084;5.146;2022-10-16T16:42:43;3.17;;;1.55;;
48733;SDS011;34530;52.084;5.146;2022-10-16T16:45:09;4.25;;;1.48;;
48733;SDS011;34530;52.084;5.146;2022-10-16T16:47:35;4.70;;;2.03;;
48733;SDS011;34530;52.084;5.146;2022-10-16T16:50:00;4.70;;;1.73;;
48733;SDS011;34530;52.084;5.146;2022-10-16T16:52:29;5.97;;;1.85;;
48733;SDS011;34530;52.084;5.146;2022-10-16T16:54:55;3.97;;;1.27;;
48733;SDS011;34530;52.084;5.146;2022-10-16T16:57:21;4.35;;;1.50;;
48733;SDS011;34530;52.084;5.146;2022-10-16T16:59:46;2.55;;;1.40;;
48733;SDS011;34530;52.084;5.146;2022-10-16T17:02:14;4.65;;;1.52;;
48733;SDS011;34530;52.084;5.146;2022-10-16T17:04:40;4.18;;;1.50;;
48733;SDS011;34530;52.084;5.146;2022-10-16T17:07:05;3.75;;;1.73;;
48733;SDS011;34530;52.084;5.146;2022-10-16T17:09:32;6.00;;;1.50;;